sensor_id;sensor_type;location;lat;lon;timestamp;pressure;altitude;pressure_sealevel;temperature;humidity
72308;BME280;60257;42.638;23.376;2022-07-03T00:01:46;95033.25;;;20.21;71.22
72308;BME280;60257;42.638;23.376;2022-07-03T00:04:11;95028.91;;;20.20;71.53
72308;BME280;60257;42.638;23.376;2022-07-03T00:06:37;95031.25;;;20.25;71.60
72308;BME280;60257;42.638;23.376;2022-07-03T00:09:04;95024.16;;;20.14;72.11
72308;BME280;60257;42.638;23.376;2022-07-03T00:11:30;95032.53;;;20.03;72.22
72308;BME280;60257;42.638;23.376;2022-07-03T00:13:56;95040.06;;;20.03;72.80
72308;BME280;60257;42.638;23.376;2022-07-03T00:16:22;95038.88;;;20.00;73.22
72308;BME280;60257;42.638;23.376;2022-07-03T00:18:47;95034.53;;;19.85;73.26
72308;BME280;60257;42.638;23.376;2022-07-03T00:21:20;95037.34;;;19.78;73.96
72308;BME280;60257;42.638;23.376;2022-07-03T00:23:55;95037.75;;;19.55;74.76
72308;BME280;60257;42.638;23.376;2022-07-03T00:26:21;95043.69;;;19.43;75.38
72308;BME280;60257;42.638;23.376;2022-07-03T00:28:47;95038.16;;;19.32;76.05
72308;BME280;60257;42.638;23.376;2022-07-03T00:31:13;95040.53;;;19.23;76.22
72308;BME280;60257;42.638;23.376;2022-07-03T00:33:39;95041.72;;;19.19;76.58
72308;BME280;60257;42.638;23.376;2022-07-03T00:36:06;95036.97;;;19.26;76.37
72308;BME280;60257;42.638;23.376;2022-07-03T00:38:32;95033.81;;;19.24;76.30
72308;BME280;60257;42.638;23.376;2022-07-03T00:40:58;95029.06;;;19.14;76.73
72308;BME280;60257;42.638;23.376;2022-07-03T00:43:25;95022.75;;;19.10;76.55
72308;BME280;60257;42.638;23.376;2022-07-03T00:45:53;95017.97;;;19.03;76.96
72308;BME280;60257;42.638;23.376;2022-07-03T00:48:20;95013.63;;;19.06;76.55
72308;BME280;60257;42.638;23.376;2022-07-03T00:50:50;95008.88;;;18.99;77.00
72308;BME280;60257;42.638;23.376;2022-07-03T00:53:26;95006.09;;;18.92;76.79
72308;BME280;60257;42.638;23.376;2022-07-03T00:55:54;95012.44;;;18.93;77.25
72308;BME280;60257;42.638;23.376;2022-07-03T00:58:21;95010.06;;;18.91;77.75
72308;BME280;60257;42.638;23.376;2022-07-03T01:00:48;95005.72;;;18.90;77.77
72308;BME280;60257;42.638;23.376;2022-07-03T01:03:17;95010.84;;;18.88;77.23
72308;BME280;60257;42.638;23.376;2022-07-03T01:05:45;95008.88;;;18.89;77.64
72308;BME280;60257;42.638;23.376;2022-07-03T01:08:31;95005.69;;;18.87;77.13
72308;BME280;60257;42.638;23.376;2022-07-03T01:13:36;95004.50;;;18.74;77.49
72308;BME280;60257;42.638;23.376;2022-07-03T01:18:34;95001.75;;;18.74;77.42
72308;BME280;60257;42.638;23.376;2022-07-03T01:21:10;94991.47;;;18.71;77.64
72308;BME280;60257;42.638;23.376;2022-07-03T01:23:56;94995.03;;;18.71;77.95
72308;BME280;60257;42.638;23.376;2022-07-03T01:26:24;94986.69;;;18.64;77.77
72308;BME280;60257;42.638;23.376;2022-07-03T01:28:52;94992.66;;;18.73;77.11
72308;BME280;60257;42.638;23.376;2022-07-03T01:31:19;94997.78;;;18.68;77.34
72308;BME280;60257;42.638;23.376;2022-07-03T01:33:50;94996.56;;;18.58;77.53
72308;BME280;60257;42.638;23.376;2022-07-03T01:36:18;95001.34;;;18.65;78.04
72308;BME280;60257;42.638;23.376;2022-07-03T01:38:45;95005.28;;;18.64;77.52
72308;BME280;60257;42.638;23.376;2022-07-03T01:41:12;94990.66;;;18.59;77.73
72308;BME280;60257;42.638;23.376;2022-07-03T01:43:49;94996.19;;;18.63;77.94
72308;BME280;60257;42.638;23.376;2022-07-03T01:46:16;94996.22;;;18.67;77.69
72308;BME280;60257;42.638;23.376;2022-07-03T01:48:43;95001.75;;;18.74;77.17
72308;BME280;60257;42.638;23.376;2022-07-03T01:51:13;94995.41;;;18.73;77.23
72308;BME280;60257;42.638;23.376;2022-07-03T01:53:44;94992.25;;;18.71;77.09
72308;BME280;60257;42.638;23.376;2022-07-03T01:56:11;94993.81;;;18.72;76.90
72308;BME280;60257;42.638;23.376;2022-07-03T01:58:37;94998.19;;;18.73;76.88
72308;BME280;60257;42.638;23.376;2022-07-03T02:01:10;94997.00;;;18.78;76.85
72308;BME280;60257;42.638;23.376;2022-07-03T02:03:48;94994.22;;;18.71;76.71
72308;BME280;60257;42.638;23.376;2022-07-03T02:09:05;94998.56;;;18.72;77.02
72308;BME280;60257;42.638;23.376;2022-07-03T02:11:40;94997.00;;;18.71;76.24
72308;BME280;60257;42.638;23.376;2022-07-03T02:14:38;95002.53;;;18.74;76.53
72308;BME280;60257;42.638;23.376;2022-07-03T02:17:17;94997.00;;;18.71;76.96
72308;BME280;60257;42.638;23.376;2022-07-03T02:20:03;94998.56;;;18.72;76.68
72308;BME280;60257;42.638;23.376;2022-07-03T02:22:40;94985.16;;;18.67;77.20
72308;BME280;60257;42.638;23.376;2022-07-03T02:25:08;95000.16;;;18.69;76.85
72308;BME280;60257;42.638;23.376;2022-07-03T02:27:57;94994.63;;;18.66;77.19
72308;BME280;60257;42.638;23.376;2022-07-03T02:30:28;94988.69;;;18.64;77.53
72308;BME280;60257;42.638;23.376;2022-07-03T02:32:58;94994.63;;;18.66;77.40
72308;BME280;60257;42.638;23.376;2022-07-03T02:35:29;94994.22;;;18.64;77.30
72308;BME280;60257;42.638;23.376;2022-07-03T02:38:09;95010.81;;;18.64;77.45
72308;BME280;60257;42.638;23.376;2022-07-03T02:40:57;95008.03;;;18.60;77.07
72308;BME280;60257;42.638;23.376;2022-07-03T02:46:31;95011.19;;;18.58;77.33
72308;BME280;60257;42.638;23.376;2022-07-03T02:54:45;95007.63;;;18.54;77.96
72308;BME280;60257;42.638;23.376;2022-07-03T02:57:14;95007.25;;;18.56;77.21
72308;BME280;60257;42.638;23.376;2022-07-03T03:05:00;95022.66;;;18.53;77.55
72308;BME280;60257;42.638;23.376;2022-07-03T03:07:55;95018.72;;;18.65;77.00
72308;BME280;60257;42.638;23.376;2022-07-03T03:10:19;95018.31;;;18.63;76.83
72308;BME280;60257;42.638;23.376;2022-07-03T03:12:48;95022.28;;;18.62;76.86
72308;BME280;60257;42.638;23.376;2022-07-03T03:15:20;95027.81;;;18.62;77.16
72308;BME280;60257;42.638;23.376;2022-07-03T03:17:49;95018.69;;;18.58;77.49
72308;BME280;60257;42.638;23.376;2022-07-03T03:20:16;95025.81;;;18.63;77.27
72308;BME280;60257;42.638;23.376;2022-07-03T03:25:15;95031.38;;;18.70;76.91
72308;BME280;60257;42.638;23.376;2022-07-03T03:27:40;95014.41;;;18.71;76.64
72308;BME280;60257;42.638;23.376;2022-07-03T03:30:06;95031.81;;;18.75;76.87
72308;BME280;60257;42.638;23.376;2022-07-03T03:32:34;95041.31;;;19.06;74.92
72308;BME280;60257;42.638;23.376;2022-07-03T03:35:01;95034.19;;;19.12;74.93
72308;BME280;60257;42.638;23.376;2022-07-03T03:37:26;95027.88;;;18.94;75.79
72308;BME280;60257;42.638;23.376;2022-07-03T03:39:52;95036.56;;;18.85;76.39
72308;BME280;60257;42.638;23.376;2022-07-03T03:42:17;95034.59;;;18.86;76.37
72308;BME280;60257;42.638;23.376;2022-07-03T03:44:43;95028.66;;;18.91;76.74
72308;BME280;60257;42.638;23.376;2022-07-03T03:47:09;95027.47;;;18.92;77.02
72308;BME280;60257;42.638;23.376;2022-07-03T03:49:34;95024.31;;;18.93;77.15
72308;BME280;60257;42.638;23.376;2022-07-03T03:52:00;95027.47;;;18.99;77.08
72308;BME280;60257;42.638;23.376;2022-07-03T03:54:25;95042.53;;;19.05;76.73
72308;BME280;60257;42.638;23.376;2022-07-03T03:56:51;95043.69;;;19.22;76.24
72308;BME280;60257;42.638;23.376;2022-07-03T03:59:16;95050.03;;;19.26;76.27
72308;BME280;60257;42.638;23.376;2022-07-03T04:01:42;95042.94;;;19.25;76.67
72308;BME280;60257;42.638;23.376;2022-07-03T04:04:07;95042.50;;;19.40;76.10
72308;BME280;60257;42.638;23.376;2022-07-03T04:06:33;95045.69;;;19.32;76.84
72308;BME280;60257;42.638;23.376;2022-07-03T04:08:58;95038.94;;;19.22;76.84
72308;BME280;60257;42.638;23.376;2022-07-03T04:11:23;95030.66;;;19.33;77.27
72308;BME280;60257;42.638;23.376;2022-07-03T04:13:49;95034.22;;;19.48;76.94
72308;BME280;60257;42.638;23.376;2022-07-03T04:16:14;95026.69;;;19.55;76.84
72308;BME280;60257;42.638;23.376;2022-07-03T04:18:40;95037.38;;;19.57;75.95
72308;BME280;60257;42.638;23.376;2022-07-03T04:21:05;95031.03;;;19.60;76.77
72308;BME280;60257;42.638;23.376;2022-07-03T04:23:31;95037.66;;;20.08;74.41
72308;BME280;60257;42.638;23.376;2022-07-03T04:26:04;95032.53;;;20.03;74.37
72308;BME280;60257;42.638;23.376;2022-07-03T04:28:30;95038.09;;;20.03;74.62
72308;BME280;60257;42.638;23.376;2022-07-03T04:30:55;95027.81;;;19.89;75.29
72308;BME280;60257;42.638;23.376;2022-07-03T04:33:21;95028.13;;;20.16;73.84
72308;BME280;60257;42.638;23.376;2022-07-03T04:35:46;95027.34;;;20.12;74.27
72308;BME280;60257;42.638;23.376;2022-07-03T04:38:12;95026.16;;;20.13;73.19
72308;BME280;60257;42.638;23.376;2022-07-03T04:40:37;95020.56;;;20.27;72.61
72308;BME280;60257;42.638;23.376;2022-07-03T04:43:03;95025.66;;;20.47;70.76
72308;BME280;60257;42.638;23.376;2022-07-03T04:45:28;95022.44;;;20.48;71.13
72308;BME280;60257;42.638;23.376;2022-07-03T04:47:53;95022.78;;;20.61;71.37
72308;BME280;60257;42.638;23.376;2022-07-03T04:50:19;95028.25;;;20.75;70.94
72308;BME280;60257;42.638;23.376;2022-07-03T04:52:44;95034.13;;;20.91;70.33
72308;BME280;60257;42.638;23.376;2022-07-03T04:55:10;95037.53;;;21.13;69.45
72308;BME280;60257;42.638;23.376;2022-07-03T04:57:36;95035.50;;;21.24;69.01
72308;BME280;60257;42.638;23.376;2022-07-03T05:00:03;95041.38;;;21.33;68.79
72308;BME280;60257;42.638;23.376;2022-07-03T05:02:29;95039.00;;;21.32;68.18
72308;BME280;60257;42.638;23.376;2022-07-03T05:04:54;95040.66;;;21.22;68.25
72308;BME280;60257;42.638;23.376;2022-07-03T05:07:20;95033.38;;;21.39;67.99
72308;BME280;60257;42.638;23.376;2022-07-03T05:09:45;95036.13;;;21.42;67.35
72308;BME280;60257;42.638;23.376;2022-07-03T05:12:10;95038.88;;;21.46;67.30
72308;BME280;60257;42.638;23.376;2022-07-03T05:14:36;95027.31;;;21.54;67.78
72308;BME280;60257;42.638;23.376;2022-07-03T05:17:01;95016.88;;;21.62;68.13
72308;BME280;60257;42.638;23.376;2022-07-03T05:19:27;95021.94;;;21.74;68.02
72308;BME280;60257;42.638;23.376;2022-07-03T05:21:52;95023.50;;;21.79;67.48
72308;BME280;60257;42.638;23.376;2022-07-03T05:24:18;95023.34;;;21.93;67.11
72308;BME280;60257;42.638;23.376;2022-07-03T05:26:43;95026.81;;;22.04;67.11
72308;BME280;60257;42.638;23.376;2022-07-03T05:29:09;95032.22;;;22.18;65.65
72308;BME280;60257;42.638;23.376;2022-07-03T05:31:34;95032.53;;;22.27;63.65
72308;BME280;60257;42.638;23.376;2022-07-03T05:33:59;95032.09;;;22.29;63.83
72308;BME280;60257;42.638;23.376;2022-07-03T05:36:25;95032.84;;;22.33;64.90
72308;BME280;60257;42.638;23.376;2022-07-03T05:38:50;95024.78;;;22.42;64.73
72308;BME280;60257;42.638;23.376;2022-07-03T05:41:34;95025.81;;;22.55;63.99
72308;BME280;60257;42.638;23.376;2022-07-03T05:44:00;95034.38;;;22.68;62.70
72308;BME280;60257;42.638;23.376;2022-07-03T05:46:25;95029.13;;;22.77;62.64
72308;BME280;60257;42.638;23.376;2022-07-03T05:48:51;95034.53;;;22.87;62.78
72308;BME280;60257;42.638;23.376;2022-07-03T05:51:16;95040.09;;;22.87;61.60
72308;BME280;60257;42.638;23.376;2022-07-03T05:53:41;95037.97;;;22.99;60.38
72308;BME280;60257;42.638;23.376;2022-07-03T05:56:07;95033.91;;;23.03;60.19
72308;BME280;60257;42.638;23.376;2022-07-03T05:58:32;95041.47;;;23.03;60.20
72308;BME280;60257;42.638;23.376;2022-07-03T06:00:58;95045.31;;;23.12;60.73
72308;BME280;60257;42.638;23.376;2022-07-03T06:03:23;95044.84;;;23.17;60.85
72308;BME280;60257;42.638;23.376;2022-07-03T06:05:49;95045.22;;;23.19;59.94
72308;BME280;60257;42.638;23.376;2022-07-03T06:08:14;95051.44;;;23.30;60.54
72308;BME280;60257;42.638;23.376;2022-07-03T06:10:40;95050.19;;;23.31;60.30
72308;BME280;60257;42.638;23.376;2022-07-03T06:13:05;95039.00;;;23.35;60.43
72308;BME280;60257;42.638;23.376;2022-07-03T06:15:31;95047.59;;;23.48;60.89
72308;BME280;60257;42.638;23.376;2022-07-03T06:17:56;95048.13;;;23.62;60.96
72308;BME280;60257;42.638;23.376;2022-07-03T06:20:22;95055.22;;;23.67;60.72
72308;BME280;60257;42.638;23.376;2022-07-03T06:22:48;95042.88;;;23.68;60.41
72308;BME280;60257;42.638;23.376;2022-07-03T06:25:13;95044.31;;;23.76;60.60
72308;BME280;60257;42.638;23.376;2022-07-03T06:27:39;95048.50;;;23.88;60.05
72308;BME280;60257;42.638;23.376;2022-07-03T06:30:05;95047.28;;;23.89;61.68
72308;BME280;60257;42.638;23.376;2022-07-03T06:32:31;95055.69;;;23.85;60.38
72308;BME280;60257;42.638;23.376;2022-07-03T06:34:56;95047.28;;;23.89;59.40
72308;BME280;60257;42.638;23.376;2022-07-03T06:37:22;95051.50;;;23.97;58.77
72308;BME280;60257;42.638;23.376;2022-07-03T06:39:47;95049.44;;;24.01;57.87
72308;BME280;60257;42.638;23.376;2022-07-03T06:42:13;95046.22;;;24.02;58.67
72308;BME280;60257;42.638;23.376;2022-07-03T06:44:38;95046.09;;;24.09;58.20
72308;BME280;60257;42.638;23.376;2022-07-03T06:47:04;95040.78;;;24.15;58.80
72308;BME280;60257;42.638;23.376;2022-07-03T06:49:32;95035.72;;;24.10;57.09
72308;BME280;60257;42.638;23.376;2022-07-03T06:51:58;95048.88;;;24.09;56.86
72308;BME280;60257;42.638;23.376;2022-07-03T06:54:24;95041.44;;;24.03;56.71
72308;BME280;60257;42.638;23.376;2022-07-03T06:56:49;95042.06;;;23.91;56.61
72308;BME280;60257;42.638;23.376;2022-07-03T06:59:15;95043.69;;;23.88;57.04
72308;BME280;60257;42.638;23.376;2022-07-03T07:01:40;95037.94;;;23.99;57.33
72308;BME280;60257;42.638;23.376;2022-07-03T07:04:06;95039.63;;;23.93;56.49
72308;BME280;60257;42.638;23.376;2022-07-03T07:06:32;95046.41;;;23.92;56.60
72308;BME280;60257;42.638;23.376;2022-07-03T07:08:57;95034.06;;;23.93;56.69
72308;BME280;60257;42.638;23.376;2022-07-03T07:11:23;95037.72;;;24.09;56.33
72308;BME280;60257;42.638;23.376;2022-07-03T07:13:48;95039.50;;;24.43;56.10
72308;BME280;60257;42.638;23.376;2022-07-03T07:16:13;95034.00;;;24.16;57.00
72308;BME280;60257;42.638;23.376;2022-07-03T07:18:43;95035.28;;;24.11;57.32
72308;BME280;60257;42.638;23.376;2022-07-03T07:21:09;95040.00;;;24.18;57.86
72308;BME280;60257;42.638;23.376;2022-07-03T07:23:35;95034.00;;;24.16;57.56
72308;BME280;60257;42.638;23.376;2022-07-03T07:26:01;95030.19;;;24.06;58.22
72308;BME280;60257;42.638;23.376;2022-07-03T07:28:26;95031.97;;;24.20;58.41
72308;BME280;60257;42.638;23.376;2022-07-03T07:30:52;95030.19;;;24.30;59.35
72308;BME280;60257;42.638;23.376;2022-07-03T07:33:21;95025.81;;;24.29;58.55
72308;BME280;60257;42.638;23.376;2022-07-03T07:35:47;95018.50;;;24.35;59.16
72308;BME280;60257;42.638;23.376;2022-07-03T07:38:13;95024.09;;;24.54;57.84
72308;BME280;60257;42.638;23.376;2022-07-03T07:40:38;95024.88;;;24.55;57.95
72308;BME280;60257;42.638;23.376;2022-07-03T07:43:04;95024.66;;;24.66;58.65
72308;BME280;60257;42.638;23.376;2022-07-03T07:45:29;95021.47;;;24.83;57.93
72308;BME280;60257;42.638;23.376;2022-07-03T07:47:55;95023.22;;;24.97;58.60
72308;BME280;60257;42.638;23.376;2022-07-03T07:50:21;95026.09;;;25.10;55.45
72308;BME280;60257;42.638;23.376;2022-07-03T07:52:46;95030.03;;;25.12;55.28
72308;BME280;60257;42.638;23.376;2022-07-03T07:55:11;95025.91;;;25.00;55.24
72308;BME280;60257;42.638;23.376;2022-07-03T07:57:38;95021.13;;;25.01;55.08
72308;BME280;60257;42.638;23.376;2022-07-03T08:00:11;95020.31;;;25.00;55.65
72308;BME280;60257;42.638;23.376;2022-07-03T08:02:38;95023.72;;;25.08;55.26
72308;BME280;60257;42.638;23.376;2022-07-03T08:05:22;95021.13;;;25.17;54.78
72308;BME280;60257;42.638;23.376;2022-07-03T08:08:05;95011.88;;;25.20;54.83
72308;BME280;60257;42.638;23.376;2022-07-03T08:13:04;95004.03;;;25.31;55.89
72308;BME280;60257;42.638;23.376;2022-07-03T08:15:30;95002.25;;;25.37;55.01
72308;BME280;60257;42.638;23.376;2022-07-03T08:17:55;95010.75;;;25.50;54.91
72308;BME280;60257;42.638;23.376;2022-07-03T08:20:21;95005.69;;;25.45;55.93
72308;BME280;60257;42.638;23.376;2022-07-03T08:22:46;95006.56;;;25.58;56.51
72308;BME280;60257;42.638;23.376;2022-07-03T08:25:12;95005.63;;;25.65;57.91
72308;BME280;60257;42.638;23.376;2022-07-03T08:27:37;95002.97;;;25.74;56.84
72308;BME280;60257;42.638;23.376;2022-07-03T08:30:03;95012.66;;;25.85;54.90
72308;BME280;60257;42.638;23.376;2022-07-03T08:32:29;95010.47;;;25.93;55.12
72308;BME280;60257;42.638;23.376;2022-07-03T08:34:55;95006.69;;;26.00;55.02
72308;BME280;60257;42.638;23.376;2022-07-03T08:37:21;95006.38;;;26.10;54.36
72308;BME280;60257;42.638;23.376;2022-07-03T08:39:47;95005.84;;;26.15;53.92
72308;BME280;60257;42.638;23.376;2022-07-03T08:42:13;95007.28;;;26.23;52.79
72308;BME280;60257;42.638;23.376;2022-07-03T08:44:41;94996.88;;;26.37;52.11
72308;BME280;60257;42.638;23.376;2022-07-03T08:47:08;95000.38;;;26.41;51.52
72308;BME280;60257;42.638;23.376;2022-07-03T08:49:34;94999.81;;;26.33;51.33
72308;BME280;60257;42.638;23.376;2022-07-03T08:52:00;94997.44;;;26.32;51.67
72308;BME280;60257;42.638;23.376;2022-07-03T08:54:26;95000.72;;;26.43;51.01
72308;BME280;60257;42.638;23.376;2022-07-03T08:56:51;94990.53;;;26.49;50.23
72308;BME280;60257;42.638;23.376;2022-07-03T08:59:18;94990.75;;;26.54;50.39
72308;BME280;60257;42.638;23.376;2022-07-03T09:01:46;94996.59;;;26.47;50.70
72308;BME280;60257;42.638;23.376;2022-07-03T09:04:12;94999.97;;;26.55;51.47
72308;BME280;60257;42.638;23.376;2022-07-03T09:06:42;94995.31;;;26.77;50.31
72308;BME280;60257;42.638;23.376;2022-07-03T09:09:08;94997.03;;;26.87;49.99
72308;BME280;60257;42.638;23.376;2022-07-03T09:11:37;94988.91;;;26.77;49.32
72308;BME280;60257;42.638;23.376;2022-07-03T09:14:03;94992.75;;;26.83;49.91
72308;BME280;60257;42.638;23.376;2022-07-03T09:16:34;94982.78;;;26.94;49.72
72308;BME280;60257;42.638;23.376;2022-07-03T09:19:00;94981.47;;;27.11;49.25
72308;BME280;60257;42.638;23.376;2022-07-03T09:21:25;94986.69;;;27.22;49.60
72308;BME280;60257;42.638;23.376;2022-07-03T09:23:52;94980.44;;;27.31;50.20
72308;BME280;60257;42.638;23.376;2022-07-03T09:26:18;94985.81;;;27.50;49.92
72308;BME280;60257;42.638;23.376;2022-07-03T09:28:54;94983.69;;;27.54;47.67
72308;BME280;60257;42.638;23.376;2022-07-03T09:31:26;94975.78;;;27.62;47.65
72308;BME280;60257;42.638;23.376;2022-07-03T09:33:56;94968.38;;;27.68;47.91
72308;BME280;60257;42.638;23.376;2022-07-03T09:39:19;94975.69;;;28.13;46.79
72308;BME280;60257;42.638;23.376;2022-07-03T09:42:02;94971.41;;;28.08;47.62
72308;BME280;60257;42.638;23.376;2022-07-03T09:44:39;94970.59;;;28.42;45.46
72308;BME280;60257;42.638;23.376;2022-07-03T09:47:23;94967.97;;;28.48;44.36
72308;BME280;60257;42.638;23.376;2022-07-03T09:50:00;94973.66;;;28.57;44.18
72308;BME280;60257;42.638;23.376;2022-07-03T09:52:39;94970.75;;;28.69;42.52
72308;BME280;60257;42.638;23.376;2022-07-03T09:57:38;94962.22;;;28.73;42.21
72308;BME280;60257;42.638;23.376;2022-07-03T10:00:14;94966.56;;;28.96;41.72
72308;BME280;60257;42.638;23.376;2022-07-03T10:03:08;94952.91;;;28.85;41.64
72308;BME280;60257;42.638;23.376;2022-07-03T10:05:42;94956.56;;;28.95;41.73
72308;BME280;60257;42.638;23.376;2022-07-03T10:08:09;94958.00;;;29.08;40.10
72308;BME280;60257;42.638;23.376;2022-07-03T10:10:41;94959.44;;;29.13;39.34
72308;BME280;60257;42.638;23.376;2022-07-03T10:13:07;94957.16;;;29.29;39.02
72308;BME280;60257;42.638;23.376;2022-07-03T10:15:34;94952.22;;;29.43;36.55
72308;BME280;60257;42.638;23.376;2022-07-03T10:18:08;94951.59;;;29.48;36.17
72308;BME280;60257;42.638;23.376;2022-07-03T10:23:02;94941.66;;;29.65;35.97
72308;BME280;60257;42.638;23.376;2022-07-03T10:25:29;94942.44;;;29.75;36.04
72308;BME280;60257;42.638;23.376;2022-07-03T10:27:55;94936.66;;;29.87;35.35
72308;BME280;60257;42.638;23.376;2022-07-03T10:30:22;94934.66;;;29.97;35.56
72308;BME280;60257;42.638;23.376;2022-07-03T10:32:50;94939.97;;;30.22;34.32
72308;BME280;60257;42.638;23.376;2022-07-03T10:35:19;94936.22;;;30.52;33.47
72308;BME280;60257;42.638;23.376;2022-07-03T10:37:58;94939.31;;;30.73;33.24
72308;BME280;60257;42.638;23.376;2022-07-03T10:43:40;94935.59;;;31.09;31.87
72308;BME280;60257;42.638;23.376;2022-07-03T10:46:27;94921.16;;;31.16;30.95
72308;BME280;60257;42.638;23.376;2022-07-03T10:49:00;94917.28;;;30.95;31.11
72308;BME280;60257;42.638;23.376;2022-07-03T10:51:29;94924.56;;;30.78;31.70
72308;BME280;60257;42.638;23.376;2022-07-03T10:54:14;94921.44;;;30.67;31.87
72308;BME280;60257;42.638;23.376;2022-07-03T11:07:44;94906.03;;;29.89;35.91
72308;BME280;60257;42.638;23.376;2022-07-03T11:10:29;94904.44;;;30.06;34.91
72308;BME280;60257;42.638;23.376;2022-07-03T11:13:16;94907.09;;;30.19;33.85
72308;BME280;60257;42.638;23.376;2022-07-03T11:15:51;94895.63;;;30.41;34.16
72308;BME280;60257;42.638;23.376;2022-07-03T11:18:33;94901.13;;;30.44;33.79
72308;BME280;60257;42.638;23.376;2022-07-03T11:23:44;94885.06;;;30.78;32.55
72308;BME280;60257;42.638;23.376;2022-07-03T11:33:43;94876.91;;;30.80;33.28
72308;BME280;60257;42.638;23.376;2022-07-03T11:36:29;94871.97;;;31.08;34.74
72308;BME280;60257;42.638;23.376;2022-07-03T11:41:21;94873.28;;;30.88;33.17
72308;BME280;60257;42.638;23.376;2022-07-03T11:43:51;94873.00;;;30.77;32.73
72308;BME280;60257;42.638;23.376;2022-07-03T11:46:41;94871.34;;;30.52;35.29
72308;BME280;60257;42.638;23.376;2022-07-03T11:49:14;94861.78;;;30.59;34.41
72308;BME280;60257;42.638;23.376;2022-07-03T11:51:43;94865.03;;;30.67;34.41
72308;BME280;60257;42.638;23.376;2022-07-03T11:54:09;94860.25;;;30.49;35.56
72308;BME280;60257;42.638;23.376;2022-07-03T11:56:35;94856.34;;;30.28;35.20
72308;BME280;60257;42.638;23.376;2022-07-03T11:59:03;94856.00;;;30.35;35.24
72308;BME280;60257;42.638;23.376;2022-07-03T12:01:32;94858.97;;;30.50;34.87
72308;BME280;60257;42.638;23.376;2022-07-03T12:04:06;94857.91;;;30.38;34.57
72308;BME280;60257;42.638;23.376;2022-07-03T12:06:42;94850.66;;;30.55;36.07
72308;BME280;60257;42.638;23.376;2022-07-03T12:09:16;94855.66;;;30.61;36.58
72308;BME280;60257;42.638;23.376;2022-07-03T12:11:44;94850.50;;;30.59;37.17
72308;BME280;60257;42.638;23.376;2022-07-03T12:14:16;94834.63;;;30.71;35.71
72308;BME280;60257;42.638;23.376;2022-07-03T12:16:42;94848.09;;;30.76;35.88
72308;BME280;60257;42.638;23.376;2022-07-03T12:19:07;94856.53;;;30.76;36.49
72308;BME280;60257;42.638;23.376;2022-07-03T12:21:39;94840.13;;;30.65;35.96
72308;BME280;60257;42.638;23.376;2022-07-03T12:24:12;94834.44;;;30.83;35.93
72308;BME280;60257;42.638;23.376;2022-07-03T12:26:38;94831.44;;;30.87;35.26
72308;BME280;60257;42.638;23.376;2022-07-03T12:29:13;94830.22;;;30.79;34.42
72308;BME280;60257;42.638;23.376;2022-07-03T12:31:40;94833.88;;;31.03;36.56
72308;BME280;60257;42.638;23.376;2022-07-03T12:34:06;94834.06;;;30.90;35.19
72308;BME280;60257;42.638;23.376;2022-07-03T12:36:32;94841.69;;;30.99;34.87
72308;BME280;60257;42.638;23.376;2022-07-03T12:38:58;94829.78;;;31.28;33.42
72308;BME280;60257;42.638;23.376;2022-07-03T12:41:26;94824.94;;;31.28;34.84
72308;BME280;60257;42.638;23.376;2022-07-03T12:43:52;94828.66;;;31.34;35.76
72308;BME280;60257;42.638;23.376;2022-07-03T12:46:56;94824.88;;;31.37;34.61
72308;BME280;60257;42.638;23.376;2022-07-03T12:49:14;94817.59;;;31.46;33.19
72308;BME280;60257;42.638;23.376;2022-07-03T12:51:49;94829.75;;;31.37;32.76
72308;BME280;60257;42.638;23.376;2022-07-03T12:54:32;94830.63;;;31.43;33.70
72308;BME280;60257;42.638;23.376;2022-07-03T12:57:08;94825.97;;;31.16;35.50
72308;BME280;60257;42.638;23.376;2022-07-03T13:00:10;94810.03;;;31.28;34.11
72308;BME280;60257;42.638;23.376;2022-07-03T13:02:38;94823.66;;;31.29;35.01
72308;BME280;60257;42.638;23.376;2022-07-03T13:05:40;94824.09;;;31.37;34.34
72308;BME280;60257;42.638;23.376;2022-07-03T13:08:06;94832.53;;;31.22;34.48
72308;BME280;60257;42.638;23.376;2022-07-03T13:10:31;94816.47;;;31.28;33.12
72308;BME280;60257;42.638;23.376;2022-07-03T13:12:58;94814.34;;;31.38;31.98
72308;BME280;60257;42.638;23.376;2022-07-03T13:15:27;94810.78;;;31.52;31.55
72308;BME280;60257;42.638;23.376;2022-07-03T13:20:23;94817.28;;;31.44;31.74
72308;BME280;60257;42.638;23.376;2022-07-03T13:22:49;94821.34;;;31.52;35.41
72308;BME280;60257;42.638;23.376;2022-07-03T13:25:15;94817.22;;;31.62;37.61
72308;BME280;60257;42.638;23.376;2022-07-03T13:27:41;94815.63;;;31.61;38.41
72308;BME280;60257;42.638;23.376;2022-07-03T13:30:08;94817.00;;;31.42;38.72
72308;BME280;60257;42.638;23.376;2022-07-03T13:32:34;94816.81;;;31.45;36.75
72308;BME280;60257;42.638;23.376;2022-07-03T13:35:00;94812.31;;;31.38;37.33
72308;BME280;60257;42.638;23.376;2022-07-03T13:37:25;94814.78;;;31.46;38.09
72308;BME280;60257;42.638;23.376;2022-07-03T13:39:51;94800.84;;;31.42;38.22
72308;BME280;60257;42.638;23.376;2022-07-03T13:42:16;94800.66;;;31.69;38.61
72308;BME280;60257;42.638;23.376;2022-07-03T13:44:42;94802.06;;;31.89;37.67
72308;BME280;60257;42.638;23.376;2022-07-03T13:47:08;94801.03;;;31.77;36.76
72308;BME280;60257;42.638;23.376;2022-07-03T13:49:33;94792.88;;;31.79;36.07
72308;BME280;60257;42.638;23.376;2022-07-03T13:51:59;94784.25;;;32.12;36.90
72308;BME280;60257;42.638;23.376;2022-07-03T13:54:25;94789.44;;;32.28;34.77
72308;BME280;60257;42.638;23.376;2022-07-03T13:56:51;94789.06;;;32.20;34.95
72308;BME280;60257;42.638;23.376;2022-07-03T13:59:16;94782.50;;;32.29;34.31
72308;BME280;60257;42.638;23.376;2022-07-03T14:01:43;94780.59;;;32.55;34.15
72308;BME280;60257;42.638;23.376;2022-07-03T14:04:08;94777.91;;;32.96;33.86